sensor_id;sensor_type;location;lat;lon;timestamp;temperature;humidity
1716;DHT22;855;48.824;9.220;2023-04-06T00:00:32;3.30;83.40
1716;DHT22;855;48.824;9.220;2023-04-06T00:02:58;3.40;83.20
1716;DHT22;855;48.824;9.220;2023-04-06T00:05:25;3.30;82.80
1716;DHT22;855;48.824;9.220;2023-04-06T00:07:53;3.30;82.90
1716;DHT22;855;48.824;9.220;2023-04-06T00:10:22;3.30;82.50
1716;DHT22;855;48.824;9.220;2023-04-06T00:12:50;3.40;82.10
1716;DHT22;855;48.824;9.220;2023-04-06T00:15:17;3.30;82.30
1716;DHT22;855;48.824;9.220;2023-04-06T00:17:44;3.20;82.50
1716;DHT22;855;48.824;9.220;2023-04-06T00:20:11;3.20;82.70
1716;DHT22;855;48.824;9.220;2023-04-06T00:22:38;3.10;82.90
1716;DHT22;855;48.824;9.220;2023-04-06T00:25:06;3.10;83.30
1716;DHT22;855;48.824;9.220;2023-04-06T00:27:34;3.00;83.40
1716;DHT22;855;48.824;9.220;2023-04-06T00:30:01;2.90;83.80
1716;DHT22;855;48.824;9.220;2023-04-06T00:32:28;3.00;83.70
1716;DHT22;855;48.824;9.220;2023-04-06T00:34:55;3.00;83.60
1716;DHT22;855;48.824;9.220;2023-04-06T00:37:22;2.90;83.60
1716;DHT22;855;48.824;9.220;2023-04-06T00:39:49;2.70;84.20
1716;DHT22;855;48.824;9.220;2023-04-06T00:42:17;2.70;84.40
1716;DHT22;855;48.824;9.220;2023-04-06T00:44:52;2.80;84.10
1716;DHT22;855;48.824;9.220;2023-04-06T00:47:19;2.70;83.70
1716;DHT22;855;48.824;9.220;2023-04-06T00:49:46;2.80;84.00
1716;DHT22;855;48.824;9.220;2023-04-06T00:52:13;2.80;83.70
1716;DHT22;855;48.824;9.220;2023-04-06T00:54:40;2.80;83.70
1716;DHT22;855;48.824;9.220;2023-04-06T00:57:07;2.80;83.60
1716;DHT22;855;48.824;9.220;2023-04-06T00:59:34;2.80;83.70
1716;DHT22;855;48.824;9.220;2023-04-06T01:02:02;2.80;84.20
1716;DHT22;855;48.824;9.220;2023-04-06T01:04:29;2.70;84.60
1716;DHT22;855;48.824;9.220;2023-04-06T01:06:57;2.70;84.60
1716;DHT22;855;48.824;9.220;2023-04-06T01:09:24;2.70;84.50
1716;DHT22;855;48.824;9.220;2023-04-06T01:11:51;2.60;84.50
1716;DHT22;855;48.824;9.220;2023-04-06T01:14:18;2.40;86.50
1716;DHT22;855;48.824;9.220;2023-04-06T01:16:45;2.30;87.40
1716;DHT22;855;48.824;9.220;2023-04-06T01:19:14;2.30;87.70
1716;DHT22;855;48.824;9.220;2023-04-06T01:21:41;2.40;87.70
1716;DHT22;855;48.824;9.220;2023-04-06T01:24:10;2.50;87.50
1716;DHT22;855;48.824;9.220;2023-04-06T01:26:37;2.50;87.10
1716;DHT22;855;48.824;9.220;2023-04-06T01:29:04;2.50;86.90
1716;DHT22;855;48.824;9.220;2023-04-06T01:31:31;2.50;86.70
1716;DHT22;855;48.824;9.220;2023-04-06T01:33:58;2.30;87.00
1716;DHT22;855;48.824;9.220;2023-04-06T01:36:25;2.40;87.40
1716;DHT22;855;48.824;9.220;2023-04-06T01:38:52;2.40;87.40
1716;DHT22;855;48.824;9.220;2023-04-06T01:41:20;2.30;87.40
1716;DHT22;855;48.824;9.220;2023-04-06T01:43:48;2.30;87.40
1716;DHT22;855;48.824;9.220;2023-04-06T01:46:15;2.40;87.30
1716;DHT22;855;48.824;9.220;2023-04-06T01:48:42;2.30;87.00
1716;DHT22;855;48.824;9.220;2023-04-06T01:51:09;2.30;87.30
1716;DHT22;855;48.824;9.220;2023-04-06T01:53:36;2.30;87.30
1716;DHT22;855;48.824;9.220;2023-04-06T01:56:04;2.30;87.10
1716;DHT22;855;48.824;9.220;2023-04-06T01:58:33;2.30;87.00
1716;DHT22;855;48.824;9.220;2023-04-06T02:01:00;2.30;87.10
1716;DHT22;855;48.824;9.220;2023-04-06T02:03:27;2.30;87.10
1716;DHT22;855;48.824;9.220;2023-04-06T02:05:53;2.30;87.30
1716;DHT22;855;48.824;9.220;2023-04-06T02:08:20;2.30;87.00
1716;DHT22;855;48.824;9.220;2023-04-06T02:10:47;2.20;87.10
1716;DHT22;855;48.824;9.220;2023-04-06T02:13:14;2.20;87.30
1716;DHT22;855;48.824;9.220;2023-04-06T02:15:42;2.20;87.30
1716;DHT22;855;48.824;9.220;2023-04-06T02:18:09;2.10;87.40
1716;DHT22;855;48.824;9.220;2023-04-06T02:20:36;2.10;87.70
1716;DHT22;855;48.824;9.220;2023-04-06T02:23:03;2.10;87.80
1716;DHT22;855;48.824;9.220;2023-04-06T02:25:30;2.10;87.90
1716;DHT22;855;48.824;9.220;2023-04-06T02:27:57;2.10;87.90
1716;DHT22;855;48.824;9.220;2023-04-06T02:30:25;2.10;87.90
1716;DHT22;855;48.824;9.220;2023-04-06T02:32:53;2.10;87.90
1716;DHT22;855;48.824;9.220;2023-04-06T02:35:20;2.10;88.10
1716;DHT22;855;48.824;9.220;2023-04-06T02:37:47;2.00;88.30
1716;DHT22;855;48.824;9.220;2023-04-06T02:40:14;2.00;88.50
1716;DHT22;855;48.824;9.220;2023-04-06T02:42:41;2.00;88.50
1716;DHT22;855;48.824;9.220;2023-04-06T02:45:08;2.00;88.50
1716;DHT22;855;48.824;9.220;2023-04-06T02:47:35;2.00;88.50
1716;DHT22;855;48.824;9.220;2023-04-06T02:50:04;2.00;88.20
1716;DHT22;855;48.824;9.220;2023-04-06T02:52:32;2.10;87.90
1716;DHT22;855;48.824;9.220;2023-04-06T02:54:58;2.10;87.40
1716;DHT22;855;48.824;9.220;2023-04-06T02:57:25;2.00;87.10
1716;DHT22;855;48.824;9.220;2023-04-06T02:59:52;2.00;87.30
1716;DHT22;855;48.824;9.220;2023-04-06T03:02:19;2.00;87.00
1716;DHT22;855;48.824;9.220;2023-04-06T03:04:47;2.10;86.70
1716;DHT22;855;48.824;9.220;2023-04-06T03:07:15;2.10;86.60
1716;DHT22;855;48.824;9.220;2023-04-06T03:09:42;2.10;86.60
1716;DHT22;855;48.824;9.220;2023-04-06T03:12:09;2.00;86.70
1716;DHT22;855;48.824;9.220;2023-04-06T03:14:36;2.10;87.00
1716;DHT22;855;48.824;9.220;2023-04-06T03:17:03;2.00;86.70
1716;DHT22;855;48.824;9.220;2023-04-06T03:19:30;2.00;86.90
1716;DHT22;855;48.824;9.220;2023-04-06T03:21:57;2.00;87.00
1716;DHT22;855;48.824;9.220;2023-04-06T03:24:25;1.90;87.50
1716;DHT22;855;48.824;9.220;2023-04-06T03:26:52;1.90;88.20
1716;DHT22;855;48.824;9.220;2023-04-06T03:29:19;1.80;88.30
1716;DHT22;855;48.824;9.220;2023-04-06T03:31:46;1.80;88.90
1716;DHT22;855;48.824;9.220;2023-04-06T03:34:13;1.80;89.10
1716;DHT22;855;48.824;9.220;2023-04-06T03:36:40;1.70;89.00
1716;DHT22;855;48.824;9.220;2023-04-06T03:39:06;1.70;89.10
1716;DHT22;855;48.824;9.220;2023-04-06T03:41:35;1.60;89.30
1716;DHT22;855;48.824;9.220;2023-04-06T03:44:02;1.60;89.50
1716;DHT22;855;48.824;9.220;2023-04-06T03:46:29;1.70;89.50
1716;DHT22;855;48.824;9.220;2023-04-06T03:48:55;1.70;89.30
1716;DHT22;855;48.824;9.220;2023-04-06T03:51:22;1.70;89.00
1716;DHT22;855;48.824;9.220;2023-04-06T03:53:51;1.70;89.00
1716;DHT22;855;48.824;9.220;2023-04-06T03:56:18;1.70;88.70
1716;DHT22;855;48.824;9.220;2023-04-06T03:58:47;1.80;88.70
1716;DHT22;855;48.824;9.220;2023-04-06T04:01:16;1.80;88.20
1716;DHT22;855;48.824;9.220;2023-04-06T04:03:43;1.80;88.10
1716;DHT22;855;48.824;9.220;2023-04-06T04:06:10;1.80;88.10
1716;DHT22;855;48.824;9.220;2023-04-06T04:08:36;1.80;87.90
1716;DHT22;855;48.824;9.220;2023-04-06T04:11:03;1.60;88.20
1716;DHT22;855;48.824;9.220;2023-04-06T04:13:30;1.50;89.30
1716;DHT22;855;48.824;9.220;2023-04-06T04:15:59;1.50;89.90
1716;DHT22;855;48.824;9.220;2023-04-06T04:18:26;1.40;90.20
1716;DHT22;855;48.824;9.220;2023-04-06T04:20:53;1.40;90.50
1716;DHT22;855;48.824;9.220;2023-04-06T04:23:19;1.40;90.50
1716;DHT22;855;48.824;9.220;2023-04-06T04:25:46;1.40;90.40
1716;DHT22;855;48.824;9.220;2023-04-06T04:28:13;1.40;90.30
1716;DHT22;855;48.824;9.220;2023-04-06T04:30:41;1.40;90.20
1716;DHT22;855;48.824;9.220;2023-04-06T04:33:09;1.40;90.10
1716;DHT22;855;48.824;9.220;2023-04-06T04:35:36;1.50;89.90
1716;DHT22;855;48.824;9.220;2023-04-06T04:38:03;1.50;89.80
1716;DHT22;855;48.824;9.220;2023-04-06T04:40:30;1.50;89.30
1716;DHT22;855;48.824;9.220;2023-04-06T04:42:57;1.40;89.30
1716;DHT22;855;48.824;9.220;2023-04-06T04:45:24;1.30;90.20
1716;DHT22;855;48.824;9.220;2023-04-06T04:47:51;1.30;90.50
1716;DHT22;855;48.824;9.220;2023-04-06T04:50:19;1.40;90.30
1716;DHT22;855;48.824;9.220;2023-04-06T04:52:46;1.40;90.10
1716;DHT22;855;48.824;9.220;2023-04-06T04:55:13;1.40;90.10
1716;DHT22;855;48.824;9.220;2023-04-06T04:57:40;1.50;89.90
1716;DHT22;855;48.824;9.220;2023-04-06T05:00:08;1.50;89.80
1716;DHT22;855;48.824;9.220;2023-04-06T05:02:35;1.50;89.50
1716;DHT22;855;48.824;9.220;2023-04-06T05:05:03;1.50;89.30
1716;DHT22;855;48.824;9.220;2023-04-06T05:07:31;1.60;89.30
1716;DHT22;855;48.824;9.220;2023-04-06T05:09:58;1.60;89.10
1716;DHT22;855;48.824;9.220;2023-04-06T05:12:25;1.60;89.10
1716;DHT22;855;48.824;9.220;2023-04-06T05:14:53;1.60;89.30
1716;DHT22;855;48.824;9.220;2023-04-06T05:17:20;1.60;89.50
1716;DHT22;855;48.824;9.220;2023-04-06T05:19:47;1.70;89.70
1716;DHT22;855;48.824;9.220;2023-04-06T05:22:14;1.80;89.70
1716;DHT22;855;48.824;9.220;2023-04-06T05:24:44;1.80;90.20
1716;DHT22;855;48.824;9.220;2023-04-06T05:27:11;2.00;92.20
1716;DHT22;855;48.824;9.220;2023-04-06T05:29:38;2.10;92.70
1716;DHT22;855;48.824;9.220;2023-04-06T05:32:05;2.30;93.30
1716;DHT22;855;48.824;9.220;2023-04-06T05:34:33;2.30;92.70
1716;DHT22;855;48.824;9.220;2023-04-06T05:37:00;2.50;92.00
1716;DHT22;855;48.824;9.220;2023-04-06T05:39:27;2.70;91.70
1716;DHT22;855;48.824;9.220;2023-04-06T05:41:55;3.00;91.20
1716;DHT22;855;48.824;9.220;2023-04-06T05:44:22;3.20;90.30
1716;DHT22;855;48.824;9.220;2023-04-06T05:46:49;3.50;88.30
1716;DHT22;855;48.824;9.220;2023-04-06T05:49:16;3.70;85.00
1716;DHT22;855;48.824;9.220;2023-04-06T05:51:43;3.80;82.10
1716;DHT22;855;48.824;9.220;2023-04-06T05:54:10;4.00;80.30
1716;DHT22;855;48.824;9.220;2023-04-06T05:56:37;4.00;78.30
1716;DHT22;855;48.824;9.220;2023-04-06T05:59:05;4.10;77.40
1716;DHT22;855;48.824;9.220;2023-04-06T06:01:33;4.20;75.50
1716;DHT22;855;48.824;9.220;2023-04-06T06:04:00;4.20;75.50
1716;DHT22;855;48.824;9.220;2023-04-06T06:06:27;4.40;75.80
1716;DHT22;855;48.824;9.220;2023-04-06T06:08:55;4.40;74.70
1716;DHT22;855;48.824;9.220;2023-04-06T06:11:24;4.40;73.90
1716;DHT22;855;48.824;9.220;2023-04-06T06:13:51;4.60;74.60
1716;DHT22;855;48.824;9.220;2023-04-06T06:16:19;4.50;73.10
1716;DHT22;855;48.824;9.220;2023-04-06T06:18:47;4.50;73.80
1716;DHT22;855;48.824;9.220;2023-04-06T06:21:14;4.50;73.40
1716;DHT22;855;48.824;9.220;2023-04-06T06:23:42;4.60;73.80
1716;DHT22;855;48.824;9.220;2023-04-06T06:26:09;4.80;73.40
1716;DHT22;855;48.824;9.220;2023-04-06T06:28:36;4.90;72.30
1716;DHT22;855;48.824;9.220;2023-04-06T06:31:03;4.80;72.10
1716;DHT22;855;48.824;9.220;2023-04-06T06:33:32;4.80;72.20
1716;DHT22;855;48.824;9.220;2023-04-06T06:35:59;5.00;72.50
1716;DHT22;855;48.824;9.220;2023-04-06T06:38:26;5.20;71.80
1716;DHT22;855;48.824;9.220;2023-04-06T06:40:52;5.30;70.20
1716;DHT22;855;48.824;9.220;2023-04-06T06:43:19;5.40;69.20
1716;DHT22;855;48.824;9.220;2023-04-06T06:45:46;5.50;68.50
1716;DHT22;855;48.824;9.220;2023-04-06T06:48:13;5.60;68.20
1716;DHT22;855;48.824;9.220;2023-04-06T06:50:41;5.60;66.90
1716;DHT22;855;48.824;9.220;2023-04-06T06:53:08;5.70;67.10
1716;DHT22;855;48.824;9.220;2023-04-06T06:55:36;5.80;67.10
1716;DHT22;855;48.824;9.220;2023-04-06T06:58:03;5.90;66.40
1716;DHT22;855;48.824;9.220;2023-04-06T07:00:31;6.00;65.60
1716;DHT22;855;48.824;9.220;2023-04-06T07:02:58;6.10;64.30
1716;DHT22;855;48.824;9.220;2023-04-06T07:05:25;6.20;65.10
1716;DHT22;855;48.824;9.220;2023-04-06T07:07:54;6.20;64.70
1716;DHT22;855;48.824;9.220;2023-04-06T07:10:21;6.30;64.20
1716;DHT22;855;48.824;9.220;2023-04-06T07:12:48;6.40;63.90
1716;DHT22;855;48.824;9.220;2023-04-06T07:15:16;6.40;63.40
1716;DHT22;855;48.824;9.220;2023-04-06T07:17:43;6.50;62.70
1716;DHT22;855;48.824;9.220;2023-04-06T07:20:11;6.60;62.30
1716;DHT22;855;48.824;9.220;2023-04-06T07:22:38;6.60;61.90
1716;DHT22;855;48.824;9.220;2023-04-06T07:25:07;6.70;61.60
1716;DHT22;855;48.824;9.220;2023-04-06T07:27:34;6.80;62.00
1716;DHT22;855;48.824;9.220;2023-04-06T07:30:01;6.90;60.60
1716;DHT22;855;48.824;9.220;2023-04-06T07:32:28;6.90;60.20
1716;DHT22;855;48.824;9.220;2023-04-06T07:34:55;7.10;61.20
1716;DHT22;855;48.824;9.220;2023-04-06T07:37:22;7.40;60.60
1716;DHT22;855;48.824;9.220;2023-04-06T07:39:49;7.70;60.20
1716;DHT22;855;48.824;9.220;2023-04-06T07:42:18;7.80;60.80
1716;DHT22;855;48.824;9.220;2023-04-06T07:44:44;7.90;58.90
1716;DHT22;855;48.824;9.220;2023-04-06T07:47:11;8.00;58.70
1716;DHT22;855;48.824;9.220;2023-04-06T07:49:38;8.20;58.20
1716;DHT22;855;48.824;9.220;2023-04-06T07:52:05;8.30;57.80
1716;DHT22;855;48.824;9.220;2023-04-06T07:54:32;8.40;57.30
1716;DHT22;855;48.824;9.220;2023-04-06T07:56:59;8.60;56.90
1716;DHT22;855;48.824;9.220;2023-04-06T07:59:27;8.70;56.00
1716;DHT22;855;48.824;9.220;2023-04-06T08:01:54;8.90;56.30
1716;DHT22;855;48.824;9.220;2023-04-06T08:04:21;8.90;56.90
1716;DHT22;855;48.824;9.220;2023-04-06T08:06:48;9.10;57.20
1716;DHT22;855;48.824;9.220;2023-04-06T08:09:15;9.40;55.70
1716;DHT22;855;48.824;9.220;2023-04-06T08:11:42;9.60;56.80
1716;DHT22;855;48.824;9.220;2023-04-06T08:14:10;9.70;55.30
1716;DHT22;855;48.824;9.220;2023-04-06T08:16:38;9.80;53.90
1716;DHT22;855;48.824;9.220;2023-04-06T08:19:05;10.00;54.20
1716;DHT22;855;48.824;9.220;2023-04-06T08:21:34;10.10;53.90
1716;DHT22;855;48.824;9.220;2023-04-06T08:24:01;10.10;53.60
1716;DHT22;855;48.824;9.220;2023-04-06T08:26:28;10.20;53.70
1716;DHT22;855;48.824;9.220;2023-04-06T08:28:55;10.40;53.80
1716;DHT22;855;48.824;9.220;2023-04-06T08:31:22;10.60;53.70
1716;DHT22;855;48.824;9.220;2023-04-06T08:33:50;10.60;52.30
1716;DHT22;855;48.824;9.220;2023-04-06T08:36:17;10.60;51.20
1716;DHT22;855;48.824;9.220;2023-04-06T08:38:48;10.60;50.70
1716;DHT22;855;48.824;9.220;2023-04-06T08:41:16;10.70;51.80
1716;DHT22;855;48.824;9.220;2023-04-06T08:43:44;10.90;53.20
1716;DHT22;855;48.824;9.220;2023-04-06T08:46:13;11.00;51.30
1716;DHT22;855;48.824;9.220;2023-04-06T08:48:42;11.10;48.70
1716;DHT22;855;48.824;9.220;2023-04-06T08:51:11;11.40;49.80
1716;DHT22;855;48.824;9.220;2023-04-06T08:53:38;11.50;49.60
1716;DHT22;855;48.824;9.220;2023-04-06T08:56:05;11.70;48.20
1716;DHT22;855;48.824;9.220;2023-04-06T08:58:35;11.90;46.10
1716;DHT22;855;48.824;9.220;2023-04-06T09:01:06;12.00;47.20
1716;DHT22;855;48.824;9.220;2023-04-06T09:03:37;12.10;46.30
1716;DHT22;855;48.824;9.220;2023-04-06T09:06:05;12.20;45.20
1716;DHT22;855;48.824;9.220;2023-04-06T09:08:34;12.00;43.10
1716;DHT22;855;48.824;9.220;2023-04-06T09:11:01;12.20;42.60
1716;DHT22;855;48.824;9.220;2023-04-06T09:13:29;12.40;43.00
1716;DHT22;855;48.824;9.220;2023-04-06T09:16:00;12.60;42.50
1716;DHT22;855;48.824;9.220;2023-04-06T09:18:31;12.80;43.60
1716;DHT22;855;48.824;9.220;2023-04-06T09:21:00;12.80;43.60
1716;DHT22;855;48.824;9.220;2023-04-06T09:23:27;12.70;44.00
1716;DHT22;855;48.824;9.220;2023-04-06T09:26:06;12.70;42.80
1716;DHT22;855;48.824;9.220;2023-04-06T09:28:44;13.00;43.00
1716;DHT22;855;48.824;9.220;2023-04-06T09:31:12;12.80;40.90
1716;DHT22;855;48.824;9.220;2023-04-06T09:33:40;12.90;40.70
1716;DHT22;855;48.824;9.220;2023-04-06T09:36:07;13.00;42.20
1716;DHT22;855;48.824;9.220;2023-04-06T09:38:37;13.00;39.60
1716;DHT22;855;48.824;9.220;2023-04-06T09:41:05;13.00;41.00
1716;DHT22;855;48.824;9.220;2023-04-06T09:43:32;13.00;40.90
1716;DHT22;855;48.824;9.220;2023-04-06T09:46:00;13.00;41.00
1716;DHT22;855;48.824;9.220;2023-04-06T09:48:31;13.00;40.40
1716;DHT22;855;48.824;9.220;2023-04-06T09:51:03;13.10;40.00
1716;DHT22;855;48.824;9.220;2023-04-06T09:53:31;13.00;40.50
1716;DHT22;855;48.824;9.220;2023-04-06T09:56:03;12.90;39.20
1716;DHT22;855;48.824;9.220;2023-04-06T09:58:37;13.10;40.20
1716;DHT22;855;48.824;9.220;2023-04-06T10:01:09;13.10;36.50
1716;DHT22;855;48.824;9.220;2023-04-06T10:03:42;13.00;36.20
1716;DHT22;855;48.824;9.220;2023-04-06T10:06:13;12.90;35.70
1716;DHT22;855;48.824;9.220;2023-04-06T10:08:43;12.90;35.70
1716;DHT22;855;48.824;9.220;2023-04-06T10:11:12;13.10;37.40
1716;DHT22;855;48.824;9.220;2023-04-06T10:13:40;13.30;36.90
1716;DHT22;855;48.824;9.220;2023-04-06T10:16:08;13.40;35.50
1716;DHT22;855;48.824;9.220;2023-04-06T10:18:37;13.50;36.00
1716;DHT22;855;48.824;9.220;2023-04-06T10:21:08;13.80;34.50
1716;DHT22;855;48.824;9.220;2023-04-06T10:23:40;13.90;34.80
1716;DHT22;855;48.824;9.220;2023-04-06T10:26:13;14.00;34.30
1716;DHT22;855;48.824;9.220;2023-04-06T10:28:44;14.10;34.60
1716;DHT22;855;48.824;9.220;2023-04-06T10:31:12;14.00;32.90
1716;DHT22;855;48.824;9.220;2023-04-06T10:33:39;14.10;33.60
1716;DHT22;855;48.824;9.220;2023-04-06T10:36:10;14.10;32.60
1716;DHT22;855;48.824;9.220;2023-04-06T10:38:38;14.10;31.90
1716;DHT22;855;48.824;9.220;2023-04-06T10:41:06;14.00;32.40
1716;DHT22;855;48.824;9.220;2023-04-06T10:43:34;14.20;32.90
1716;DHT22;855;48.824;9.220;2023-04-06T10:46:05;14.30;33.30
1716;DHT22;855;48.824;9.220;2023-04-06T10:48:39;14.40;35.10
1716;DHT22;855;48.824;9.220;2023-04-06T10:51:10;14.50;34.30
1716;DHT22;855;48.824;9.220;2023-04-06T10:53:38;14.30;32.30
1716;DHT22;855;48.824;9.220;2023-04-06T10:56:09;14.00;33.00
1716;DHT22;855;48.824;9.220;2023-04-06T10:58:37;13.80;33.50
1716;DHT22;855;48.824;9.220;2023-04-06T11:01:05;14.10;33.10
1716;DHT22;855;48.824;9.220;2023-04-06T11:03:42;14.30;32.60
1716;DHT22;855;48.824;9.220;2023-04-06T11:06:10;14.40;34.00
1716;DHT22;855;48.824;9.220;2023-04-06T11:08:38;14.40;33.10
1716;DHT22;855;48.824;9.220;2023-04-06T11:11:06;14.40;33.50
1716;DHT22;855;48.824;9.220;2023-04-06T11:13:41;14.30;32.10
1716;DHT22;855;48.824;9.220;2023-04-06T11:16:14;13.90;35.10
1716;DHT22;855;48.824;9.220;2023-04-06T11:18:52;14.00;33.90
1716;DHT22;855;48.824;9.220;2023-04-06T11:21:32;14.10;33.00
1716;DHT22;855;48.824;9.220;2023-04-06T11:24:07;14.20;32.40
1716;DHT22;855;48.824;9.220;2023-04-06T11:26:40;14.50;32.60
1716;DHT22;855;48.824;9.220;2023-04-06T11:29:07;14.60;33.30
1716;DHT22;855;48.824;9.220;2023-04-06T11:31:42;14.70;33.30
1716;DHT22;855;48.824;9.220;2023-04-06T11:34:13;14.90;32.50
1716;DHT22;855;48.824;9.220;2023-04-06T11:36:41;15.00;31.40
1716;DHT22;855;48.824;9.220;2023-04-06T11:39:08;15.00;30.90
1716;DHT22;855;48.824;9.220;2023-04-06T11:41:36;15.00;32.50
1716;DHT22;855;48.824;9.220;2023-04-06T11:44:03;15.10;34.30
1716;DHT22;855;48.824;9.220;2023-04-06T11:46:30;15.20;31.90
1716;DHT22;855;48.824;9.220;2023-04-06T11:49:00;15.10;31.00
1716;DHT22;855;48.824;9.220;2023-04-06T11:51:27;15.10;29.80
1716;DHT22;855;48.824;9.220;2023-04-06T11:53:54;14.90;30.10
1716;DHT22;855;48.824;9.220;2023-04-06T11:56:26;14.80;32.40
1716;DHT22;855;48.824;9.220;2023-04-06T11:58:55;14.70;30.80
1716;DHT22;855;48.824;9.220;2023-04-06T12:01:22;14.70;30.50
1716;DHT22;855;48.824;9.220;2023-04-06T12:03:50;14.70;29.90
1716;DHT22;855;48.824;9.220;2023-04-06T12:06:18;14.90;30.40
1716;DHT22;855;48.824;9.220;2023-04-06T12:08:45;15.00;29.50
1716;DHT22;855;48.824;9.220;2023-04-06T12:11:12;15.20;30.10
1716;DHT22;855;48.824;9.220;2023-04-06T12:13:39;15.30;29.50
1716;DHT22;855;48.824;9.220;2023-04-06T12:16:06;15.50;29.40
1716;DHT22;855;48.824;9.220;2023-04-06T12:18:33;15.30;29.20
1716;DHT22;855;48.824;9.220;2023-04-06T12:21:00;15.40;30.10
1716;DHT22;855;48.824;9.220;2023-04-06T12:23:28;15.60;32.80
1716;DHT22;855;48.824;9.220;2023-04-06T12:25:55;15.80;32.40
1716;DHT22;855;48.824;9.220;2023-04-06T12:28:22;16.00;29.90
1716;DHT22;855;48.824;9.220;2023-04-06T12:30:52;16.10;30.40
1716;DHT22;855;48.824;9.220;2023-04-06T12:33:20;16.20;28.40
1716;DHT22;855;48.824;9.220;2023-04-06T12:35:47;16.00;28.50
1716;DHT22;855;48.824;9.220;2023-04-06T12:38:14;15.30;28.80
1716;DHT22;855;48.824;9.220;2023-04-06T12:40:44;15.00;29.10
1716;DHT22;855;48.824;9.220;2023-04-06T12:43:11;15.10;29.10
1716;DHT22;855;48.824;9.220;2023-04-06T12:45:39;15.20;30.60
1716;DHT22;855;48.824;9.220;2023-04-06T12:48:06;15.40;29.50
1716;DHT22;855;48.824;9.220;2023-04-06T12:50:33;15.40;29.80
1716;DHT22;855;48.824;9.220;2023-04-06T12:53:00;15.30;29.60
1716;DHT22;855;48.824;9.220;2023-04-06T12:55:29;15.40;29.50
1716;DHT22;855;48.824;9.220;2023-04-06T12:58:01;15.50;30.30
1716;DHT22;855;48.824;9.220;2023-04-06T13:00:28;15.60;30.30
1716;DHT22;855;48.824;9.220;2023-04-06T13:02:56;15.50;29.60
1716;DHT22;855;48.824;9.220;2023-04-06T13:05:23;15.50;29.90
1716;DHT22;855;48.824;9.220;2023-04-06T13:07:50;15.40;30.50
1716;DHT22;855;48.824;9.220;2023-04-06T13:10:17;15.40;30.40
1716;DHT22;855;48.824;9.220;2023-04-06T13:12:44;15.50;29.60
1716;DHT22;855;48.824;9.220;2023-04-06T13:15:12;15.40;29.80
1716;DHT22;855;48.824;9.220;2023-04-06T13:17:39;15.40;29.70
1716;DHT22;855;48.824;9.220;2023-04-06T13:20:07;15.30;29.70
1716;DHT22;855;48.824;9.220;2023-04-06T13:22:36;15.40;29.40
1716;DHT22;855;48.824;9.220;2023-04-06T13:25:03;15.60;29.60
1716;DHT22;855;48.824;9.220;2023-04-06T13:27:30;15.70;29.50
1716;DHT22;855;48.824;9.220;2023-04-06T13:29:59;15.70;29.90
1716;DHT22;855;48.824;9.220;2023-04-06T13:32:28;15.60;29.80
1716;DHT22;855;48.824;9.220;2023-04-06T13:34:55;15.50;29.40
1716;DHT22;855;48.824;9.220;2023-04-06T13:37:23;15.70;28.70
1716;DHT22;855;48.824;9.220;2023-04-06T13:39:50;15.80;28.10
1716;DHT22;855;48.824;9.220;2023-04-06T13:42:17;15.80;28.20
1716;DHT22;855;48.824;9.220;2023-04-06T13:44:44;15.80;28.30
1716;DHT22;855;48.824;9.220;2023-04-06T13:47:12;15.90;28.40
1716;DHT22;855;48.824;9.220;2023-04-06T13:49:42;15.90;28.30
1716;DHT22;855;48.824;9.220;2023-04-06T13:52:09;16.00;28.40
1716;DHT22;855;48.824;9.220;2023-04-06T13:54:36;15.80;28.20
1716;DHT22;855;48.824;9.220;2023-04-06T13:57:03;15.90;28.20
1716;DHT22;855;48.824;9.220;2023-04-06T13:59:34;15.80;28.30
1716;DHT22;855;48.824;9.220;2023-04-06T14:02:02;15.70;29.50
1716;DHT22;855;48.824;9.220;2023-04-06T14:04:29;15.60;28.70
1716;DHT22;855;48.824;9.220;2023-04-06T14:06:58;15.50;28.20
1716;DHT22;855;48.824;9.220;2023-04-06T14:09:25;15.40;29.00
1716;DHT22;855;48.824;9.220;2023-04-06T14:11:52;15.60;28.60
1716;DHT22;855;48.824;9.220;2023-04-06T14:14:19;15.50;28.70
1716;DHT22;855;48.824;9.220;2023-04-06T14:16:46;15.40;28.50
1716;DHT22;855;48.824;9.220;2023-04-06T14:19:15;15.40;28.40
1716;DHT22;855;48.824;9.220;2023-04-06T14:21:43;15.40;28.60
1716;DHT22;855;48.824;9.220;2023-04-06T14:24:11;15.10;28.80
1716;DHT22;855;48.824;9.220;2023-04-06T14:26:39;15.20;30.10
1716;DHT22;855;48.824;9.220;2023-04-06T14:29:07;15.20;29.00
1716;DHT22;855;48.824;9.220;2023-04-06T14:31:34;15.40;28.90
1716;DHT22;855;48.824;9.220;2023-04-06T14:34:03;15.60;29.10
1716;DHT22;855;48.824;9.220;2023-04-06T14:36:31;15.90;28.70
1716;DHT22;855;48.824;9.220;2023-04-06T14:39:02;16.10;28.90
1716;DHT22;855;48.824;9.220;2023-04-06T14:41:32;16.20;28.90
1716;DHT22;855;48.824;9.220;2023-04-06T14:43:59;16.10;29.30
1716;DHT22;855;48.824;9.220;2023-04-06T14:46:26;15.90;28.50
1716;DHT22;855;48.824;9.220;2023-04-06T14:48:54;15.90;29.00
1716;DHT22;855;48.824;9.220;2023-04-06T14:51:21;15.60;28.70
1716;DHT22;855;48.824;9.220;2023-04-06T15:01:36;16.10;28.90
1716;DHT22;855;48.824;9.220;2023-04-06T15:04:03;16.10;28.70
1716;DHT22;855;48.824;9.220;2023-04-06T15:06:31;16.10;28.50
1716;DHT22;855;48.824;9.220;2023-04-06T15:08:58;16.00;28.50
1716;DHT22;855;48.824;9.220;2023-04-06T15:11:26;15.90;29.20
1716;DHT22;855;48.824;9.220;2023-04-06T15:16:28;15.90;28.70
1716;DHT22;855;48.824;9.220;2023-04-06T15:18:59;15.70;28.80
1716;DHT22;855;48.824;9.220;2023-04-06T15:21:26;15.60;28.80
1716;DHT22;855;48.824;9.220;2023-04-06T15:23:53;15.50;29.20
1716;DHT22;855;48.824;9.220;2023-04-06T15:26:20;15.60;29.00
1716;DHT22;855;48.824;9.220;2023-04-06T15:28:47;15.30;28.60
1716;DHT22;855;48.824;9.220;2023-04-06T15:31:15;15.40;29.10
1716;DHT22;855;48.824;9.220;2023-04-06T15:33:42;15.50;28.70
1716;DHT22;855;48.824;9.220;2023-04-06T15:36:26;15.60;28.90
1716;DHT22;855;48.824;9.220;2023-04-06T15:38:54;15.60;28.60
1716;DHT22;855;48.824;9.220;2023-04-06T15:41:21;15.70;29.20
1716;DHT22;855;48.824;9.220;2023-04-06T15:43:48;15.70;28.60
1716;DHT22;855;48.824;9.220;2023-04-06T15:46:14;15.80;28.80
1716;DHT22;855;48.824;9.220;2023-04-06T15:48:42;15.80;29.00
1716;DHT22;855;48.824;9.220;2023-04-06T15:51:09;15.80;29.30
1716;DHT22;855;48.824;9.220;2023-04-06T15:53:37;15.70;29.80
1716;DHT22;855;48.824;9.220;2023-04-06T15:56:05;15.60;29.40
1716;DHT22;855;48.824;9.220;2023-04-06T15:58:33;15.50;29.20
1716;DHT22;855;48.824;9.220;2023-04-06T16:01:00;15.40;29.40
1716;DHT22;855;48.824;9.220;2023-04-06T16:03:27;15.50;30.10
1716;DHT22;855;48.824;9.220;2023-04-06T16:05:54;15.40;28.90
1716;DHT22;855;48.824;9.220;2023-04-06T16:08:21;15.40;29.50
1716;DHT22;855;48.824;9.220;2023-04-06T16:10:49;15.50;29.60
1716;DHT22;855;48.824;9.220;2023-04-06T16:13:16;15.60;29.50
1716;DHT22;855;48.824;9.220;2023-04-06T16:15:43;15.70;29.30
1716;DHT22;855;48.824;9.220;2023-04-06T16:18:10;15.70;29.10
1716;DHT22;855;48.824;9.220;2023-04-06T16:20:37;15.80;29.00
1716;DHT22;855;48.824;9.220;2023-04-06T16:23:04;15.60;29.20
1716;DHT22;855;48.824;9.220;2023-04-06T16:25:31;15.50;29.80
1716;DHT22;855;48.824;9.220;2023-04-06T16:28:00;15.40;30.10
1716;DHT22;855;48.824;9.220;2023-04-06T16:30:26;15.30;30.80
1716;DHT22;855;48.824;9.220;2023-04-06T16:32:55;15.10;31.00
1716;DHT22;855;48.824;9.220;2023-04-06T16:35:22;15.10;31.90
1716;DHT22;855;48.824;9.220;2023-04-06T16:37:50;15.10;31.00
1716;DHT22;855;48.824;9.220;2023-04-06T16:40:17;15.10;31.30